Garrison, Montana
Current Conditions -  °F | °C
As of 5:53 PM on Sunday 21 Dec 2014 (Local Time) from KHLN Reporting Station
Clear Clear  
Wind Chill: 30°   Ceiling: Unl
Heat Index: 40°   Visibility: 10mi
Dew Point: 25°   Wind: 21mph
Humidity: 55%   Direction: 260°W
Pressure: 29.69"   Gusts: 36mph
Location:  46.52°N, 112.8°W
Report Text: KHLN 220053Z 26018G31KT 10SM CLR 04/M04 A2969 RMK AO2 PK WND 28040/0041 SLP085 T00441039
Loading
Personal Weather Stations






























Interactive Weather Map New forecast layout! Learn more

10-Day Weather Forecast

Advertisements
Track Severe Weather on mobile